Terminal Aerodrome Forecast
Issued by NWS

Home | Current Version | Previous Version | Text Only | Print | Product List | Glossary On
Versions: 1 2 3 4 5 6 7 8 9 10 11 12 13 14 15 16 17 18 19 20 21 22 23 24 25 26 27 28 29 30
000
FTUS45 KRIW 191726
TAFPNA
TAF
KPNA 191726Z 1918/2018 15008KT P6SM SKC
     FM191900 18014G22KT P6SM SCT100
     FM200000 16008KT P6SM SCT090 BKN200
     FM200300 VRB05KT P6SM VCSH SCT060 BKN090
     FM200700 30010KT P6SM VCSH SCT030 BKN050
     FM201600 28011G17KT P6SM -RA SCT020 BKN035
     AMD LTD TO CLD VIS AND WIND=

USA.gov is the U.S. government's official web portal to all federal, state and local government web resources and services.